createdAt,value
2023-05-19T00:01:50.541Z,1.15
2023-05-19T00:04:21.313Z,1.23
2023-05-19T00:06:55.212Z,1.35
2023-05-19T00:09:22.325Z,1.60
2023-05-19T00:11:54.585Z,1.77
2023-05-19T00:14:24.786Z,1.40
2023-05-19T00:16:58.335Z,1.60
2023-05-19T00:19:32.951Z,1.38
2023-05-19T00:22:06.978Z,1.43
2023-05-19T00:24:35.571Z,1.50
2023-05-19T00:27:07.266Z,1.52
2023-05-19T00:29:44.874Z,1.27
2023-05-19T00:32:12.720Z,1.27
2023-05-19T00:34:44.810Z,1.67
2023-05-19T00:37:18.919Z,1.17
2023-05-19T00:39:46.606Z,1.60
2023-05-19T00:42:18.445Z,1.40
2023-05-19T00:44:52.789Z,1.40
2023-05-19T00:47:20.977Z,1.73
2023-05-19T00:49:48.606Z,1.85
2023-05-19T00:52:15.532Z,1.35
2023-05-19T00:54:44.878Z,1.45
2023-05-19T00:57:13.783Z,1.38
2023-05-19T00:59:41.241Z,1.47
2023-05-19T01:02:09.174Z,1.33
2023-05-19T01:07:22.442Z,1.50
2023-05-19T01:09:50.426Z,1.48
2023-05-19T01:15:01.326Z,1.50
2023-05-19T01:17:50.317Z,1.50
2023-05-19T01:20:36.544Z,1.40
2023-05-19T01:23:18.624Z,1.52
2023-05-19T01:26:10.116Z,1.50
2023-05-19T01:28:59.287Z,1.70
2023-05-19T01:31:33.232Z,1.20
2023-05-19T01:34:05.026Z,1.55
2023-05-19T01:36:37.671Z,1.88
2023-05-19T01:39:06.461Z,1.43
2023-05-19T01:41:35.891Z,2.00
2023-05-19T01:44:03.425Z,1.40
2023-05-19T01:46:38.762Z,1.10
2023-05-19T01:51:50.322Z,1.50
2023-05-19T01:54:20.568Z,1.40
2023-05-19T01:57:02.220Z,1.95
2023-05-19T02:00:10.135Z,1.58
2023-05-19T02:02:59.049Z,1.58
2023-05-19T02:05:42.404Z,1.33
2023-05-19T02:08:35.015Z,1.42
2023-05-19T02:11:08.068Z,1.65
2023-05-19T02:13:42.896Z,1.90
2023-05-19T02:16:14.841Z,1.70
2023-05-19T02:18:45.819Z,1.50
2023-05-19T02:21:17.999Z,1.55
2023-05-19T02:23:53.421Z,1.48
2023-05-19T02:26:25.313Z,1.45
2023-05-19T02:28:52.417Z,1.95
2023-05-19T02:31:19.531Z,2.10
2023-05-19T02:33:49.879Z,1.45
2023-05-19T02:36:17.051Z,1.27
2023-05-19T02:38:49.761Z,1.85
2023-05-19T02:41:17.347Z,2.05
2023-05-19T02:43:49.033Z,1.97
2023-05-19T02:46:16.304Z,1.92
2023-05-19T02:48:44.523Z,2.05
2023-05-19T02:51:11.272Z,1.90
2023-05-19T02:53:38.007Z,1.90
2023-05-19T02:56:06.579Z,1.37
2023-05-19T02:58:37.397Z,1.77
2023-05-19T03:01:04.578Z,1.73
2023-05-19T03:03:32.400Z,1.90
2023-05-19T03:06:01.335Z,1.90
2023-05-19T03:08:29.099Z,1.80
2023-05-19T03:10:55.967Z,1.90
2023-05-19T03:13:29.643Z,2.53
2023-05-19T03:15:59.171Z,2.00
2023-05-19T03:18:32.111Z,1.65
2023-05-19T03:21:02.273Z,1.80
2023-05-19T03:23:31.838Z,1.75
2023-05-19T03:26:00.799Z,1.77
2023-05-19T03:28:28.171Z,2.08
2023-05-19T03:30:59.039Z,2.05
2023-05-19T03:33:28.198Z,1.50
2023-05-19T03:35:59.770Z,1.67
2023-05-19T03:38:27.973Z,1.85
2023-05-19T03:40:55.007Z,1.88
2023-05-19T03:43:26.885Z,2.53
2023-05-19T03:45:57.456Z,1.80
2023-05-19T03:48:27.470Z,2.13
2023-05-19T03:50:56.499Z,2.10
2023-05-19T03:53:26.704Z,1.92
2023-05-19T03:56:01.009Z,1.90
2023-05-19T03:58:28.519Z,1.70
2023-05-19T04:01:04.304Z,1.90
2023-05-19T04:03:33.647Z,1.88
2023-05-19T04:06:00.438Z,2.08
2023-05-19T04:08:32.287Z,2.22
2023-05-19T04:10:59.477Z,1.77
2023-05-19T04:13:30.344Z,2.28
2023-05-19T04:15:57.763Z,2.35
2023-05-19T04:18:29.031Z,2.33
2023-05-19T04:20:56.311Z,2.55
2023-05-19T04:23:25.951Z,2.03
2023-05-19T04:25:54.623Z,2.08
2023-05-19T04:28:21.971Z,1.88
2023-05-19T04:30:55.789Z,2.30
2023-05-19T04:36:13.882Z,2.30
2023-05-19T04:38:47.751Z,2.08
2023-05-19T04:41:19.677Z,1.73
2023-05-19T04:43:48.622Z,2.65
2023-05-19T04:46:18.687Z,2.05
2023-05-19T04:48:50.857Z,1.90
2023-05-19T04:51:17.826Z,2.03
2023-05-19T04:53:51.733Z,2.47
2023-05-19T04:56:20.825Z,2.28
2023-05-19T04:58:48.406Z,2.10
2023-05-19T05:01:15.977Z,2.60
2023-05-19T05:03:46.709Z,2.58
2023-05-19T05:06:13.936Z,2.67
2023-05-19T05:08:45.691Z,2.15
2023-05-19T05:11:13.587Z,2.75
2023-05-19T05:13:42.257Z,3.30
2023-05-19T05:16:10.586Z,2.20
2023-05-19T05:18:39.680Z,2.60
2023-05-19T05:21:07.570Z,2.45
2023-05-19T05:23:34.916Z,2.50
2023-05-19T05:26:10.628Z,3.17
2023-05-19T05:28:37.849Z,2.60
2023-05-19T05:33:48.413Z,2.80
2023-05-19T05:36:18.498Z,2.90
2023-05-19T05:38:52.918Z,2.50
2023-05-19T05:41:22.868Z,2.30
2023-05-19T05:43:49.831Z,3.28
2023-05-19T05:46:20.209Z,2.75
2023-05-19T05:48:48.989Z,2.45
2023-05-19T05:51:16.291Z,2.70
2023-05-19T05:53:48.500Z,2.38
2023-05-19T05:56:24.707Z,2.60
2023-05-19T05:58:58.320Z,2.58
2023-05-19T06:01:27.042Z,2.65
2023-05-19T06:04:01.479Z,2.67
2023-05-19T06:06:29.789Z,3.20
2023-05-19T06:08:58.860Z,2.50
2023-05-19T06:11:29.856Z,3.40
2023-05-19T06:14:00.327Z,3.28
2023-05-19T06:16:28.057Z,2.80
2023-05-19T06:21:36.045Z,2.90
2023-05-19T06:24:08.326Z,3.10
2023-05-19T06:26:34.939Z,2.92
2023-05-19T06:29:01.476Z,2.70
2023-05-19T06:31:38.199Z,2.65
2023-05-19T06:34:04.768Z,3.03
2023-05-19T06:36:38.042Z,2.80
2023-05-19T06:39:12.489Z,3.05
2023-05-19T06:41:42.738Z,2.93
2023-05-19T06:44:09.771Z,2.95
2023-05-19T06:46:38.660Z,2.72
2023-05-19T06:49:06.074Z,3.13
2023-05-19T06:51:34.432Z,3.05
2023-05-19T06:54:02.046Z,3.13
2023-05-19T06:56:30.801Z,3.35
2023-05-19T06:59:01.318Z,3.47
2023-05-19T07:01:34.895Z,3.10
2023-05-19T07:04:01.794Z,3.45
2023-05-19T07:06:34.087Z,3.40
2023-05-19T07:09:00.887Z,2.67
2023-05-19T07:11:32.145Z,3.38
2023-05-19T07:14:01.269Z,3.45
2023-05-19T07:16:34.691Z,3.63
2023-05-19T07:21:42.688Z,3.00
2023-05-19T07:24:09.667Z,3.30
2023-05-19T07:26:38.603Z,2.97
2023-05-19T07:29:08.648Z,2.78
2023-05-19T07:31:39.491Z,2.30
2023-05-19T07:34:06.799Z,3.20
2023-05-19T07:36:48.545Z,2.38
2023-05-19T07:39:24.344Z,2.50
2023-05-19T07:41:55.129Z,2.20
2023-05-19T07:44:27.899Z,2.17
2023-05-19T07:49:38.839Z,2.42
2023-05-19T07:52:06.214Z,2.10
2023-05-19T07:54:33.357Z,1.98
2023-05-19T07:57:04.455Z,1.93
2023-05-19T07:59:35.442Z,1.85
2023-05-19T08:02:02.320Z,1.80
2023-05-19T08:04:35.069Z,1.75
2023-05-19T08:07:02.468Z,2.65
2023-05-19T08:09:29.840Z,1.50
2023-05-19T08:11:56.715Z,1.63
2023-05-19T08:14:23.680Z,1.63
2023-05-19T08:16:52.529Z,1.65
2023-05-19T08:19:21.344Z,1.50
2023-05-19T08:21:50.622Z,1.27
2023-05-19T08:24:17.451Z,1.10
2023-05-19T08:26:51.455Z,1.00
2023-05-19T08:29:20.767Z,1.30
2023-05-19T08:31:47.369Z,0.90
2023-05-19T08:34:19.091Z,0.90
2023-05-19T08:36:51.032Z,1.10
2023-05-19T08:39:27.083Z,1.60
2023-05-19T08:41:55.596Z,0.88
2023-05-19T08:44:24.418Z,1.30
2023-05-19T08:46:55.899Z,1.40
2023-05-19T08:49:29.112Z,1.42
2023-05-19T08:52:33.423Z,0.70
2023-05-19T08:57:55.801Z,1.00
2023-05-19T09:00:24.046Z,0.90
2023-05-19T09:03:00.891Z,1.10
2023-05-19T09:08:30.912Z,1.20
2023-05-19T09:10:58.034Z,1.65
2023-05-19T09:13:24.708Z,1.70
2023-05-19T09:15:53.429Z,1.60
2023-05-19T09:18:26.432Z,1.27
2023-05-19T09:21:03.613Z,1.00
2023-05-19T09:23:33.899Z,1.23
2023-05-19T09:26:18.129Z,1.63
2023-05-19T09:28:47.853Z,1.13
2023-05-19T09:31:22.013Z,0.95
2023-05-19T09:33:54.730Z,1.25
2023-05-19T09:36:21.705Z,1.05
2023-05-19T09:38:49.839Z,1.10
2023-05-19T09:41:24.521Z,1.23
2023-05-19T09:44:00.929Z,1.20
2023-05-19T09:46:29.853Z,1.42
2023-05-19T09:51:54.792Z,1.20
2023-05-19T09:54:23.234Z,1.48
2023-05-19T09:57:05.190Z,1.55
2023-05-19T09:59:34.296Z,1.05
2023-05-19T10:02:12.843Z,1.30
2023-05-19T10:04:41.169Z,1.20
2023-05-19T10:07:12.861Z,1.27
2023-05-19T10:09:42.401Z,1.27
2023-05-19T10:12:14.203Z,1.25
2023-05-19T10:14:44.839Z,1.20
2023-05-19T10:17:13.428Z,1.20
2023-05-19T10:19:42.028Z,1.40
2023-05-19T10:22:11.359Z,1.40
2023-05-19T10:24:38.657Z,1.30
2023-05-19T10:27:10.366Z,1.20
2023-05-19T10:35:32.553Z,1.30
2023-05-19T10:38:05.766Z,1.20
2023-05-19T10:40:58.380Z,1.38
2023-05-19T10:43:48.256Z,1.33
2023-05-19T10:46:17.569Z,1.25
2023-05-19T10:48:46.428Z,1.40
2023-05-19T10:51:19.706Z,1.33
2023-05-19T10:53:50.313Z,1.13
2023-05-19T10:56:47.062Z,1.40
2023-05-19T10:59:38.093Z,1.42
2023-05-19T11:02:08.949Z,1.20
2023-05-19T11:04:54.177Z,1.38
2023-05-19T11:07:22.578Z,1.50
2023-05-19T11:09:59.592Z,1.70
2023-05-19T11:12:26.375Z,1.50
2023-05-19T11:14:59.337Z,1.48
2023-05-19T11:17:27.459Z,1.30
2023-05-19T11:19:57.334Z,1.08
2023-05-19T11:22:31.646Z,1.20
2023-05-19T11:25:02.194Z,1.20
2023-05-19T11:27:52.901Z,1.10
2023-05-19T11:30:27.365Z,1.20
2023-05-19T11:32:57.653Z,1.10
2023-05-19T11:35:28.658Z,1.40
2023-05-19T11:38:00.826Z,0.88
2023-05-19T11:40:34.675Z,2.75
2023-05-19T11:43:04.019Z,1.40
2023-05-19T11:45:36.549Z,1.80
2023-05-19T11:48:10.471Z,1.50
2023-05-19T11:53:27.812Z,0.98
2023-05-19T11:55:54.692Z,1.00
2023-05-19T11:58:29.709Z,0.98
2023-05-19T12:00:57.389Z,1.30
2023-05-19T12:03:29.015Z,1.00
2023-05-19T12:06:03.641Z,1.20
2023-05-19T12:08:31.172Z,1.60
2023-05-19T12:11:05.516Z,1.20
2023-05-19T12:13:34.847Z,1.23
2023-05-19T12:16:06.811Z,1.20
2023-05-19T12:18:47.295Z,1.30
2023-05-19T12:21:18.850Z,1.00
2023-05-19T12:23:46.121Z,0.95
2023-05-19T12:26:14.950Z,1.03
2023-05-19T12:28:41.972Z,1.00
2023-05-19T12:31:08.977Z,1.17
2023-05-19T12:33:36.837Z,1.27
2023-05-19T12:36:03.492Z,0.90
2023-05-19T12:38:31.204Z,0.80
2023-05-19T12:41:01.512Z,0.77
2023-05-19T12:43:35.649Z,0.98
2023-05-19T12:46:17.687Z,1.35
2023-05-19T12:48:49.771Z,2.35
2023-05-19T12:51:18.064Z,1.40
2023-05-19T12:53:53.597Z,1.77
2023-05-19T12:56:20.952Z,1.30
2023-05-19T12:58:48.720Z,1.65
2023-05-19T13:01:20.809Z,1.00
2023-05-19T13:04:05.406Z,2.50
2023-05-19T13:06:34.031Z,1.25
2023-05-19T13:09:00.788Z,1.60
2023-05-19T13:11:35.506Z,1.30
2023-05-19T13:14:05.621Z,1.20
2023-05-19T13:16:42.919Z,1.17
2023-05-19T13:19:24.220Z,0.98
2023-05-19T13:21:55.407Z,1.33
2023-05-19T13:24:27.387Z,1.23
2023-05-19T13:27:00.666Z,1.58
2023-05-19T13:29:32.893Z,1.50
2023-05-19T13:32:01.376Z,1.25
2023-05-19T13:34:33.372Z,1.30
2023-05-19T13:37:07.677Z,1.10
2023-05-19T13:39:38.028Z,1.30
2023-05-19T13:42:14.453Z,1.20
2023-05-19T13:44:42.232Z,1.20
2023-05-19T13:47:09.131Z,1.50
2023-05-19T13:49:36.095Z,1.38
2023-05-19T13:52:04.549Z,1.58
2023-05-19T13:54:31.158Z,1.80
2023-05-19T13:57:01.478Z,1.55
2023-05-19T13:59:31.214Z,1.17
2023-05-19T14:02:05.953Z,1.92
2023-05-19T14:04:32.929Z,1.20
2023-05-19T14:07:03.332Z,1.13
2023-05-19T14:09:35.388Z,1.38
2023-05-19T14:12:07.362Z,1.70
2023-05-19T14:14:48.432Z,1.00
2023-05-19T14:17:17.763Z,1.33
2023-05-19T14:19:44.660Z,1.67
2023-05-19T14:22:14.233Z,1.55
2023-05-19T14:24:45.289Z,0.95
2023-05-19T14:27:12.716Z,1.17
2023-05-19T14:29:39.512Z,0.80
2023-05-19T14:32:11.753Z,0.87
2023-05-19T14:34:43.207Z,0.70
2023-05-19T14:37:12.497Z,0.90
2023-05-19T14:39:44.341Z,0.77
2023-05-19T14:42:14.518Z,0.77
2023-05-19T14:44:42.103Z,0.90
2023-05-19T14:47:13.970Z,0.90
2023-05-19T14:49:41.201Z,1.15
2023-05-19T14:52:16.352Z,0.98
2023-05-19T14:54:43.792Z,1.00
2023-05-19T14:57:11.239Z,1.07
2023-05-19T14:59:39.412Z,1.02
2023-05-19T15:02:07.762Z,0.90
2023-05-19T15:04:35.211Z,0.73
2023-05-19T15:09:39.367Z,0.80
2023-05-19T15:14:58.844Z,1.15
2023-05-19T15:17:28.721Z,1.00
2023-05-19T15:20:00.994Z,0.82
2023-05-19T15:22:32.909Z,0.90
2023-05-19T15:25:06.715Z,0.95
2023-05-19T15:27:40.596Z,0.90
2023-05-19T15:30:08.782Z,0.98
2023-05-19T15:32:36.009Z,0.70
2023-05-19T15:35:03.614Z,0.70
2023-05-19T15:37:32.600Z,0.70
2023-05-19T15:39:59.456Z,1.00
2023-05-19T15:42:26.444Z,0.75
2023-05-19T15:44:56.455Z,1.30
2023-05-19T15:47:30.530Z,0.70
2023-05-19T15:49:57.964Z,0.90
2023-05-19T15:52:32.182Z,1.02
2023-05-19T15:57:51.061Z,1.15
2023-05-19T16:00:18.391Z,0.80
2023-05-19T16:02:45.554Z,0.98
2023-05-19T16:05:13.571Z,0.60
2023-05-19T16:07:42.141Z,1.08
2023-05-19T16:10:09.826Z,0.80
2023-05-19T16:12:41.716Z,1.30
2023-05-19T16:15:15.738Z,1.02
2023-05-19T16:17:43.583Z,0.95
2023-05-19T16:20:15.872Z,0.80
2023-05-19T16:22:48.381Z,1.00
2023-05-19T16:25:14.938Z,0.87
2023-05-19T16:27:43.395Z,1.00
2023-05-19T16:30:11.594Z,0.98
2023-05-19T16:32:38.448Z,1.00
2023-05-19T16:35:06.524Z,0.70
2023-05-19T16:37:38.664Z,0.70
2023-05-19T16:40:13.553Z,0.80
2023-05-19T16:42:43.113Z,0.90
2023-05-19T16:45:17.503Z,1.13
2023-05-19T16:47:59.646Z,1.08
2023-05-19T16:53:10.472Z,0.90
2023-05-19T16:55:38.126Z,1.02
2023-05-19T16:58:08.859Z,1.02
2023-05-19T17:00:40.865Z,0.95
2023-05-19T17:03:12.810Z,1.13
2023-05-19T17:05:45.045Z,0.98
2023-05-19T17:08:12.978Z,1.10
2023-05-19T17:10:40.808Z,0.75
2023-05-19T17:13:07.433Z,1.20
2023-05-19T17:15:40.898Z,0.90
2023-05-19T17:18:10.814Z,1.20
2023-05-19T17:20:42.546Z,0.80
2023-05-19T17:23:10.808Z,0.80
2023-05-19T17:25:38.667Z,1.10
2023-05-19T17:28:05.636Z,0.80
2023-05-19T17:30:35.908Z,0.98
2023-05-19T17:33:04.458Z,1.00
2023-05-19T17:35:32.025Z,1.20
2023-05-19T17:37:58.716Z,1.15
2023-05-19T17:40:26.501Z,1.23
2023-05-19T17:43:00.709Z,1.20
2023-05-19T17:45:27.732Z,0.90
2023-05-19T17:47:55.569Z,1.15
2023-05-19T17:50:22.948Z,0.88
2023-05-19T17:52:53.493Z,0.73
2023-05-19T17:55:21.927Z,0.90
2023-05-19T17:57:52.877Z,0.90
2023-05-19T18:00:23.476Z,1.00
2023-05-19T18:02:56.926Z,1.02
2023-05-19T18:05:28.947Z,0.90
2023-05-19T18:07:57.799Z,0.70
2023-05-19T18:10:26.302Z,0.95
2023-05-19T18:12:53.864Z,0.95
2023-05-19T18:15:23.284Z,0.80
2023-05-19T18:17:53.511Z,1.13
2023-05-19T18:20:25.738Z,0.90
2023-05-19T18:22:53.327Z,0.90
2023-05-19T18:25:21.601Z,0.93
2023-05-19T18:27:51.332Z,0.80
2023-05-19T18:30:18.201Z,0.57
2023-05-19T18:32:49.707Z,0.82
2023-05-19T18:35:19.475Z,0.70
2023-05-19T18:37:51.532Z,0.80
2023-05-19T18:40:19.315Z,0.70
2023-05-19T18:42:46.523Z,0.90
2023-05-19T18:45:13.477Z,1.10
2023-05-19T18:47:44.687Z,0.60
2023-05-19T18:50:16.756Z,0.85
2023-05-19T18:52:43.543Z,1.00
2023-05-19T18:55:10.424Z,2.33
2023-05-19T18:57:37.312Z,1.38
2023-05-19T19:00:05.052Z,1.13
2023-05-19T19:02:32.680Z,0.70
2023-05-19T19:04:59.786Z,0.90
2023-05-19T19:07:27.755Z,0.70
2023-05-19T19:09:55.380Z,0.80
2023-05-19T19:12:22.942Z,0.90
2023-05-19T19:14:50.670Z,0.90
2023-05-19T19:17:18.167Z,0.85
2023-05-19T19:19:45.787Z,0.80
2023-05-19T19:22:19.953Z,0.80
2023-05-19T19:24:49.520Z,1.10
2023-05-19T19:27:20.714Z,0.90
2023-05-19T19:29:52.711Z,0.95
2023-05-19T19:32:26.437Z,0.73
2023-05-19T19:34:54.340Z,0.80
2023-05-19T19:37:21.204Z,0.88
2023-05-19T19:40:10.864Z,0.75
2023-05-19T19:42:38.847Z,1.10
2023-05-19T19:45:10.625Z,0.90
2023-05-19T19:47:38.565Z,0.82
2023-05-19T19:50:13.620Z,0.95
2023-05-19T19:52:40.859Z,0.95
2023-05-19T19:55:08.992Z,1.00
2023-05-19T19:57:39.259Z,0.77
2023-05-19T20:00:11.181Z,0.90
2023-05-19T20:02:45.497Z,0.80
2023-05-19T20:05:38.062Z,0.73
2023-05-19T20:08:05.874Z,0.80
2023-05-19T20:10:37.347Z,1.10
2023-05-19T20:13:09.872Z,1.10
2023-05-19T20:15:41.851Z,1.08
2023-05-19T20:18:10.867Z,0.90
2023-05-19T20:20:40.248Z,1.00
2023-05-19T20:23:08.491Z,0.77
2023-05-19T20:25:54.406Z,1.08
2023-05-19T20:28:26.854Z,0.80
2023-05-19T20:30:54.262Z,1.00
2023-05-19T20:33:23.702Z,1.48
2023-05-19T20:35:50.659Z,1.50
2023-05-19T20:38:21.959Z,1.10
2023-05-19T20:40:49.727Z,1.27
2023-05-19T20:43:16.931Z,1.85
2023-05-19T20:45:44.767Z,1.52
2023-05-19T20:48:12.192Z,1.30
2023-05-19T20:50:40.410Z,1.73
2023-05-19T20:53:11.669Z,1.67
2023-05-19T20:55:52.043Z,1.92
2023-05-19T20:58:19.489Z,1.20
2023-05-19T21:00:46.730Z,1.40
2023-05-19T21:03:14.298Z,1.55
2023-05-19T21:05:43.771Z,1.42
2023-05-19T21:08:13.584Z,1.90
2023-05-19T21:10:42.600Z,1.88
2023-05-19T21:13:16.453Z,2.00
2023-05-19T21:15:43.578Z,1.45
2023-05-19T21:18:15.474Z,1.85
2023-05-19T21:20:43.089Z,1.40
2023-05-19T21:23:13.855Z,1.80
2023-05-19T21:25:48.265Z,1.30
2023-05-19T21:28:15.039Z,2.15
2023-05-19T21:30:46.807Z,1.40
2023-05-19T21:33:15.555Z,1.50
2023-05-19T21:38:40.040Z,1.70
2023-05-19T21:41:08.520Z,1.90
2023-05-19T21:43:35.107Z,1.58
2023-05-19T21:46:06.121Z,1.80
2023-05-19T21:48:34.122Z,1.85
2023-05-19T21:51:06.531Z,1.97
2023-05-19T21:53:35.272Z,1.55
2023-05-19T21:56:08.883Z,1.60
2023-05-19T21:58:39.502Z,1.90
2023-05-19T22:01:11.094Z,2.10
2023-05-19T22:03:45.347Z,1.47
2023-05-19T22:06:14.107Z,2.00
2023-05-19T22:08:42.940Z,1.60
2023-05-19T22:11:15.061Z,1.48
2023-05-19T22:13:50.536Z,1.80
2023-05-19T22:16:20.996Z,1.40
2023-05-19T22:18:51.549Z,1.83
2023-05-19T22:21:18.537Z,1.63
2023-05-19T22:23:45.580Z,1.70
2023-05-19T22:26:22.420Z,1.80
2023-05-19T22:28:50.536Z,1.60
2023-05-19T22:31:27.521Z,1.80
2023-05-19T22:33:55.547Z,1.27
2023-05-19T22:36:22.316Z,1.75
2023-05-19T22:38:49.653Z,1.67
2023-05-19T22:41:19.962Z,1.47
2023-05-19T22:43:47.830Z,1.23
2023-05-19T22:46:14.835Z,1.48
2023-05-19T22:48:41.670Z,1.55
2023-05-19T22:51:13.039Z,1.35
2023-05-19T22:53:46.719Z,1.40
2023-05-19T22:56:18.313Z,1.88
2023-05-19T22:58:44.793Z,1.27
2023-05-19T23:01:16.158Z,1.50
2023-05-19T23:03:46.509Z,1.50
2023-05-19T23:06:13.821Z,2.07
2023-05-19T23:08:46.710Z,1.52
2023-05-19T23:11:19.916Z,1.60
2023-05-19T23:13:47.639Z,1.85
2023-05-19T23:16:14.331Z,1.52
2023-05-19T23:18:41.808Z,1.60
2023-05-19T23:21:08.678Z,1.88
2023-05-19T23:23:40.638Z,1.58
2023-05-19T23:26:22.993Z,1.40
2023-05-19T23:28:54.212Z,1.55
2023-05-19T23:31:21.235Z,1.60
2023-05-19T23:33:48.549Z,1.38
2023-05-19T23:36:23.202Z,1.80
2023-05-19T23:38:55.031Z,1.42
2023-05-19T23:41:25.289Z,1.90
2023-05-19T23:43:56.914Z,2.10
2023-05-19T23:46:27.935Z,1.92
2023-05-19T23:49:01.836Z,2.10
2023-05-19T23:51:32.380Z,2.00
2023-05-19T23:54:02.327Z,1.98
2023-05-19T23:56:33.571Z,1.60
2023-05-19T23:59:00.824Z,1.33
